createdAt,value
2023-04-06T00:02:20.625Z,1.93
2023-04-06T00:04:49.885Z,1.80
2023-04-06T00:07:17.732Z,1.89
2023-04-06T00:09:45.834Z,1.82
2023-04-06T00:12:15.275Z,1.87
2023-04-06T00:14:43.193Z,1.85
2023-04-06T00:17:11.073Z,1.64
2023-04-06T00:19:39.070Z,1.68
2023-04-06T00:22:08.342Z,1.81
2023-04-06T00:24:36.387Z,1.81
2023-04-06T00:27:04.358Z,1.81
2023-04-06T00:29:32.166Z,1.82
2023-04-06T00:32:00.069Z,1.79
2023-04-06T00:34:27.986Z,1.81
2023-04-06T00:36:55.916Z,1.82
2023-04-06T00:39:25.136Z,1.77
2023-04-06T00:41:54.791Z,1.73
2023-04-06T00:44:25.048Z,1.68
2023-04-06T00:46:53.019Z,1.72
2023-04-06T00:49:21.251Z,1.73
2023-04-06T00:51:49.174Z,1.69
2023-04-06T00:54:17.007Z,1.66
2023-04-06T00:56:46.400Z,1.59
2023-04-06T00:59:14.472Z,1.63
2023-04-06T01:01:42.492Z,1.59
2023-04-06T01:04:10.818Z,1.65
2023-04-06T01:06:39.549Z,1.58
2023-04-06T01:09:07.527Z,1.56
2023-04-06T01:11:35.580Z,1.51
2023-04-06T01:14:05.491Z,1.60
2023-04-06T01:16:33.377Z,1.60
2023-04-06T01:19:01.167Z,1.55
2023-04-06T01:21:28.892Z,1.61
2023-04-06T01:23:58.151Z,1.61
2023-04-06T01:26:26.199Z,1.51
2023-04-06T01:28:54.058Z,1.49
2023-04-06T01:31:21.837Z,1.45
2023-04-06T01:33:49.817Z,1.48
2023-04-06T01:36:17.910Z,1.37
2023-04-06T01:38:45.727Z,1.40
2023-04-06T01:41:15.262Z,1.35
2023-04-06T01:43:43.132Z,1.22
2023-04-06T01:46:11.116Z,1.25
2023-04-06T01:48:38.921Z,1.27
2023-04-06T01:51:06.836Z,1.30
2023-04-06T01:53:34.719Z,1.16
2023-04-06T01:56:02.591Z,1.18
2023-04-06T01:58:31.822Z,1.21
2023-04-06T02:00:59.821Z,1.14
2023-04-06T02:03:27.923Z,1.03
2023-04-06T02:05:55.695Z,1.06
2023-04-06T02:08:23.509Z,0.96
2023-04-06T02:10:51.258Z,1.01
2023-04-06T02:13:19.121Z,1.01
2023-04-06T02:15:48.393Z,0.97
2023-04-06T02:18:16.332Z,1.00
2023-04-06T02:20:44.050Z,0.94
2023-04-06T02:23:12.167Z,1.01
2023-04-06T02:25:39.870Z,0.92
2023-04-06T02:28:07.667Z,1.01
2023-04-06T02:30:35.503Z,1.08
2023-04-06T02:33:04.821Z,0.96
2023-04-06T02:35:33.110Z,0.95
2023-04-06T02:38:01.014Z,0.91
2023-04-06T02:40:28.743Z,0.93
2023-04-06T02:42:56.440Z,0.95
2023-04-06T02:45:24.338Z,0.98
2023-04-06T02:47:52.316Z,0.95
2023-04-06T02:50:21.505Z,0.75
2023-04-06T02:52:49.286Z,0.84
2023-04-06T02:55:17.347Z,0.86
2023-04-06T02:57:45.091Z,0.84
2023-04-06T03:00:14.150Z,0.80
2023-04-06T03:02:42.015Z,0.77
2023-04-06T03:05:09.916Z,0.72
2023-04-06T03:07:38.972Z,0.66
2023-04-06T03:10:07.702Z,0.75
2023-04-06T03:12:35.603Z,0.86
2023-04-06T03:15:03.389Z,0.72
2023-04-06T03:17:31.141Z,0.49
2023-04-06T03:19:59.054Z,0.53
2023-04-06T03:22:27.053Z,0.58
2023-04-06T03:24:56.246Z,0.74
2023-04-06T03:27:24.037Z,0.55
2023-04-06T03:29:51.765Z,0.58
2023-04-06T03:32:19.503Z,0.48
2023-04-06T03:34:47.223Z,0.45
2023-04-06T03:37:14.974Z,0.46
2023-04-06T03:39:42.776Z,0.29
2023-04-06T03:42:11.946Z,0.37
2023-04-06T03:44:39.640Z,0.39
2023-04-06T03:47:07.420Z,0.50
2023-04-06T03:49:35.190Z,0.41
2023-04-06T03:52:03.374Z,0.29
2023-04-06T03:54:31.119Z,0.39
2023-04-06T03:56:58.854Z,0.54
2023-04-06T03:59:28.261Z,0.42
2023-04-06T04:01:56.123Z,0.44
2023-04-06T04:04:24.055Z,0.22
2023-04-06T04:06:51.958Z,0.08
2023-04-06T04:09:19.749Z,0.03
2023-04-06T04:11:47.651Z,0.23
2023-04-06T04:14:15.561Z,0.21
2023-04-06T04:16:44.817Z,0.23
2023-04-06T04:19:12.699Z,0.27
2023-04-06T04:21:46.469Z,0.20
2023-04-06T04:24:14.408Z,-0.07
2023-04-06T04:26:42.748Z,-0.10
2023-04-06T04:29:10.748Z,0.08
2023-04-06T04:31:38.792Z,0.02
2023-04-06T04:34:08.826Z,0.00
2023-04-06T04:36:36.692Z,-0.15
2023-04-06T04:39:04.740Z,-0.06
2023-04-06T04:41:32.582Z,-0.10
2023-04-06T04:44:00.487Z,-0.05
2023-04-06T04:46:28.423Z,-0.01
2023-04-06T04:48:56.306Z,0.13
2023-04-06T04:51:26.296Z,0.14
2023-04-06T04:53:54.539Z,0.18
2023-04-06T04:56:22.841Z,0.12
2023-04-06T04:58:51.407Z,0.16
2023-04-06T05:01:19.380Z,0.13
2023-04-06T05:03:47.797Z,0.18
2023-04-06T05:06:16.021Z,0.16
2023-04-06T05:08:45.406Z,0.05
2023-04-06T05:11:13.705Z,0.18
2023-04-06T05:13:41.892Z,0.16
2023-04-06T05:16:10.174Z,0.16
2023-04-06T05:18:38.235Z,0.15
2023-04-06T05:21:06.491Z,0.15
2023-04-06T05:23:34.467Z,0.14
2023-04-06T05:26:03.997Z,0.26
2023-04-06T05:28:32.173Z,0.36
2023-04-06T05:31:00.199Z,0.41
2023-04-06T05:33:28.495Z,0.43
2023-04-06T05:35:56.448Z,0.43
2023-04-06T05:38:24.438Z,0.46
2023-04-06T05:40:52.368Z,0.55
2023-04-06T05:43:23.190Z,0.65
2023-04-06T05:45:51.169Z,0.78
2023-04-06T05:48:18.966Z,0.76
2023-04-06T05:50:50.547Z,0.72
2023-04-06T05:53:18.631Z,0.65
2023-04-06T05:55:46.448Z,0.79
2023-04-06T05:58:14.415Z,0.82
2023-04-06T06:00:46.786Z,0.92
2023-04-06T06:03:16.255Z,0.98
2023-04-06T06:05:44.323Z,1.23
2023-04-06T06:08:12.423Z,1.19
2023-04-06T06:10:41.410Z,1.40
2023-04-06T06:13:09.339Z,1.35
2023-04-06T06:15:37.324Z,1.35
2023-04-06T06:18:06.836Z,1.44
2023-04-06T06:20:34.630Z,1.53
2023-04-06T06:23:02.457Z,1.46
2023-04-06T06:25:31.682Z,1.49
2023-04-06T06:27:59.673Z,1.82
2023-04-06T06:30:28.104Z,1.90
2023-04-06T06:32:55.950Z,2.02
2023-04-06T06:35:25.144Z,1.94
2023-04-06T06:37:52.933Z,2.11
2023-04-06T06:40:24.805Z,2.25
2023-04-06T06:42:53.267Z,3.01
2023-04-06T06:45:21.317Z,3.77
2023-04-06T06:47:49.340Z,3.49
2023-04-06T06:50:17.341Z,4.46
2023-04-06T06:52:46.494Z,5.94
2023-04-06T06:55:14.302Z,8.48
2023-04-06T06:57:43.346Z,10.46
2023-04-06T07:00:14.152Z,12.67
2023-04-06T07:02:41.984Z,11.75
2023-04-06T07:05:23.872Z,13.80
2023-04-06T07:07:56.875Z,13.29
2023-04-06T07:10:25.184Z,14.10
2023-04-06T07:12:52.939Z,16.41
2023-04-06T07:15:20.815Z,16.34
2023-04-06T07:17:50.239Z,15.07
2023-04-06T07:20:18.242Z,15.13
2023-04-06T07:22:46.478Z,16.35
2023-04-06T07:25:15.967Z,14.89
2023-04-06T07:27:43.715Z,16.64
2023-04-06T07:30:12.041Z,18.37
2023-04-06T07:32:39.875Z,16.72
2023-04-06T07:35:08.039Z,15.70
2023-04-06T07:37:36.107Z,17.11
2023-04-06T07:40:04.043Z,16.39
2023-04-06T07:42:34.038Z,16.90
2023-04-06T07:45:02.084Z,15.55
2023-04-06T07:47:29.930Z,17.26
2023-04-06T07:49:57.981Z,17.86
2023-04-06T07:52:25.933Z,17.79
2023-04-06T07:54:53.800Z,19.99
2023-04-06T07:57:21.557Z,18.11
2023-04-06T07:59:50.688Z,16.37
2023-04-06T08:02:18.495Z,16.99
2023-04-06T08:04:46.545Z,18.01
2023-04-06T08:07:14.462Z,17.40
2023-04-06T08:09:42.244Z,18.65
2023-04-06T08:12:10.209Z,19.26
2023-04-06T08:14:38.054Z,18.17
2023-04-06T08:17:07.278Z,18.97
2023-04-06T08:19:35.062Z,18.01
2023-04-06T08:22:03.458Z,20.49
2023-04-06T08:24:33.268Z,20.52
2023-04-06T08:27:01.120Z,18.44
2023-04-06T08:29:29.022Z,19.33
2023-04-06T08:31:57.333Z,19.61
2023-04-06T08:34:26.634Z,18.12
2023-04-06T08:36:54.507Z,17.93
2023-04-06T08:39:26.348Z,17.49
2023-04-06T08:41:57.876Z,17.77
2023-04-06T08:44:26.102Z,14.19
2023-04-06T08:46:54.341Z,17.02
2023-04-06T08:49:23.244Z,19.33
2023-04-06T08:51:52.940Z,18.65
2023-04-06T08:54:20.697Z,17.47
2023-04-06T08:56:49.493Z,18.56
2023-04-06T08:59:17.777Z,18.55
2023-04-06T09:01:47.830Z,19.16
2023-04-06T09:04:16.199Z,17.11
2023-04-06T09:06:45.117Z,18.70
2023-04-06T09:09:14.327Z,17.20
2023-04-06T09:11:46.983Z,20.12
2023-04-06T09:14:14.882Z,19.89
2023-04-06T09:16:43.735Z,19.69
2023-04-06T09:19:11.959Z,21.10
2023-04-06T09:21:40.872Z,20.41
2023-04-06T09:24:09.963Z,20.19
2023-04-06T09:26:48.792Z,20.16
2023-04-06T09:29:25.702Z,20.43
2023-04-06T09:31:53.804Z,20.68
2023-04-06T09:34:24.985Z,19.30
2023-04-06T09:36:54.072Z,21.24
2023-04-06T09:39:24.259Z,21.13
2023-04-06T09:41:55.211Z,22.53
2023-04-06T09:44:24.993Z,22.14
2023-04-06T09:47:00.412Z,16.68
2023-04-06T09:49:30.302Z,19.43
2023-04-06T09:52:01.699Z,20.01
2023-04-06T09:54:31.994Z,20.55
2023-04-06T09:57:09.899Z,22.49
2023-04-06T09:59:46.283Z,20.80
2023-04-06T10:02:23.857Z,20.13
2023-04-06T10:04:57.847Z,19.09
2023-04-06T10:07:26.779Z,17.57
2023-04-06T10:09:57.013Z,19.61
2023-04-06T10:12:26.181Z,19.19
2023-04-06T10:14:54.019Z,17.92
2023-04-06T10:17:21.908Z,18.14
2023-04-06T10:19:55.913Z,15.75
2023-04-06T10:22:30.931Z,16.44
2023-04-06T10:24:58.840Z,16.96
2023-04-06T10:27:32.591Z,15.89
2023-04-06T10:30:04.755Z,18.21
2023-04-06T10:32:37.968Z,17.49
2023-04-06T10:35:12.521Z,17.20
2023-04-06T10:37:53.547Z,16.60
2023-04-06T10:40:24.406Z,17.85
2023-04-06T10:42:54.912Z,19.37
2023-04-06T10:45:24.186Z,18.99
2023-04-06T10:47:54.480Z,18.21
2023-04-06T10:50:23.099Z,18.63
2023-04-06T10:53:01.342Z,16.36
2023-04-06T10:55:30.430Z,15.95
2023-04-06T10:57:59.624Z,15.07
2023-04-06T11:00:33.455Z,16.48
2023-04-06T11:03:11.188Z,16.21
2023-04-06T11:05:39.112Z,15.36
2023-04-06T11:08:07.635Z,14.93
2023-04-06T11:10:35.421Z,16.37
2023-04-06T11:13:06.670Z,13.42
2023-04-06T11:15:38.068Z,15.16
2023-04-06T11:18:07.379Z,15.52
2023-04-06T11:20:35.265Z,14.18
2023-04-06T11:23:04.668Z,16.10
2023-04-06T11:25:33.558Z,16.85
2023-04-06T11:28:01.530Z,17.15
2023-04-06T11:30:32.851Z,17.58
2023-04-06T11:33:03.699Z,17.03
2023-04-06T11:35:34.664Z,17.09
2023-04-06T11:38:05.054Z,17.28
2023-04-06T11:40:34.150Z,16.94
2023-04-06T11:43:01.934Z,16.48
2023-04-06T11:45:41.950Z,16.66
2023-04-06T11:48:21.488Z,16.82
2023-04-06T11:50:50.057Z,16.68
2023-04-06T11:53:17.865Z,16.66
2023-04-06T11:55:47.733Z,16.31
2023-04-06T11:58:15.981Z,16.98
2023-04-06T12:00:47.607Z,17.07
2023-04-06T12:03:16.558Z,17.26
2023-04-06T12:05:45.242Z,16.93
2023-04-06T12:08:13.027Z,17.13
2023-04-06T12:10:40.850Z,17.06
2023-04-06T12:13:08.573Z,17.64
2023-04-06T12:15:36.475Z,17.98
2023-04-06T12:18:05.721Z,17.98
2023-04-06T12:20:33.828Z,18.29
2023-04-06T12:23:01.660Z,18.59
2023-04-06T12:25:31.090Z,17.10
2023-04-06T12:27:58.969Z,17.85
2023-04-06T12:30:26.765Z,18.37
2023-04-06T12:32:54.673Z,18.19
2023-04-06T12:35:23.885Z,18.11
2023-04-06T12:37:51.835Z,18.27
2023-04-06T12:40:19.723Z,18.57
2023-04-06T12:42:47.882Z,18.22
2023-04-06T12:45:15.750Z,17.35
2023-04-06T12:47:43.653Z,16.31
2023-04-06T12:50:12.139Z,16.97
2023-04-06T12:52:41.357Z,15.29
2023-04-06T12:55:10.532Z,15.49
2023-04-06T12:57:38.499Z,15.26
2023-04-06T13:00:11.004Z,15.10
2023-04-06T13:02:38.905Z,14.97
2023-04-06T13:05:07.141Z,14.09
2023-04-06T13:07:34.957Z,14.38
2023-04-06T13:10:04.401Z,14.70
2023-04-06T13:12:32.134Z,14.49
2023-04-06T13:14:59.898Z,14.56
2023-04-06T13:17:29.507Z,14.15
2023-04-06T13:19:57.434Z,14.55
2023-04-06T13:22:25.691Z,14.54
2023-04-06T13:24:53.507Z,14.27
2023-04-06T13:27:22.639Z,14.36
2023-04-06T13:29:50.441Z,13.96
2023-04-06T13:32:18.243Z,13.96
2023-04-06T13:34:46.632Z,13.89
2023-04-06T13:37:15.026Z,13.78
2023-04-06T13:39:42.795Z,13.70
2023-04-06T13:42:11.028Z,13.88
2023-04-06T13:44:40.362Z,13.68
2023-04-06T13:47:08.351Z,14.30
2023-04-06T13:49:36.823Z,14.48
2023-04-06T13:52:04.723Z,14.54
2023-04-06T13:54:32.484Z,14.52
2023-04-06T13:57:01.425Z,14.38
2023-04-06T13:59:34.140Z,14.29
2023-04-06T14:02:03.499Z,14.36
2023-04-06T14:04:31.682Z,14.45
2023-04-06T14:06:59.598Z,14.48
2023-04-06T14:09:27.587Z,14.36
2023-04-06T14:11:55.519Z,14.10
2023-04-06T14:14:24.922Z,14.09
2023-04-06T14:16:52.918Z,14.18
2023-04-06T14:19:22.587Z,13.70
2023-04-06T14:21:50.535Z,13.84
2023-04-06T14:24:19.957Z,13.95
2023-04-06T14:26:47.635Z,13.98
2023-04-06T14:29:16.754Z,13.34
2023-04-06T14:31:44.665Z,13.44
2023-04-06T14:34:12.485Z,13.61
2023-04-06T14:36:41.571Z,13.73
2023-04-06T14:39:11.070Z,13.64
2023-04-06T14:41:38.819Z,13.59
2023-04-06T14:44:07.047Z,13.58
2023-04-06T14:46:35.024Z,13.53
2023-04-06T14:49:02.709Z,13.57
2023-04-06T14:54:13.306Z,13.85
2023-04-06T14:56:41.041Z,13.48
2023-04-06T14:59:08.807Z,13.27
2023-04-06T15:01:37.260Z,13.28
2023-04-06T15:04:05.102Z,13.07
2023-04-06T15:06:32.918Z,12.98
2023-04-06T15:09:00.659Z,13.34
2023-04-06T15:11:29.953Z,13.41
2023-04-06T15:13:57.675Z,13.32
2023-04-06T15:16:25.384Z,13.07
2023-04-06T15:18:53.078Z,13.14
2023-04-06T15:21:21.445Z,13.11
2023-04-06T15:23:49.352Z,12.94
2023-04-06T15:26:17.095Z,12.91
2023-04-06T15:28:46.542Z,12.95
2023-04-06T15:31:33.014Z,12.98
2023-04-06T15:34:04.991Z,13.01
2023-04-06T15:36:32.792Z,12.90
2023-04-06T15:39:00.811Z,12.83
2023-04-06T15:41:28.878Z,12.75
2023-04-06T15:43:57.901Z,12.38
2023-04-06T15:46:27.824Z,12.60
2023-04-06T15:48:56.468Z,12.63
2023-04-06T15:51:25.016Z,12.72
2023-04-06T15:53:52.746Z,12.80
2023-04-06T15:56:21.030Z,12.70
2023-04-06T15:58:48.996Z,12.75
2023-04-06T16:01:19.913Z,12.67
2023-04-06T16:03:48.111Z,12.61
2023-04-06T16:06:16.311Z,12.53
2023-04-06T16:08:44.426Z,12.52
2023-04-06T16:11:12.546Z,12.30
2023-04-06T16:13:43.284Z,12.25
2023-04-06T16:16:12.943Z,12.17
2023-04-06T16:18:42.058Z,12.36
2023-04-06T16:21:09.690Z,12.24
2023-04-06T16:23:37.381Z,12.18
2023-04-06T16:26:12.759Z,12.21
2023-04-06T16:28:40.868Z,12.12
2023-04-06T16:31:08.700Z,12.16
2023-04-06T16:33:36.481Z,12.12
2023-04-06T16:36:05.945Z,12.00
2023-04-06T16:38:35.691Z,12.01
2023-04-06T16:41:03.974Z,12.08
2023-04-06T16:43:32.286Z,12.08
2023-04-06T16:46:00.190Z,12.04
2023-04-06T16:48:28.112Z,11.81
2023-04-06T16:50:56.349Z,11.74
2023-04-06T16:53:25.489Z,11.70
2023-04-06T16:55:53.156Z,11.76
2023-04-06T16:58:20.898Z,11.71
2023-04-06T17:00:48.547Z,11.66
2023-04-06T17:03:16.363Z,11.59
2023-04-06T17:05:45.368Z,11.56
2023-04-06T17:08:13.652Z,11.52
2023-04-06T17:13:15.282Z,11.50
2023-04-06T17:15:44.723Z,11.35
2023-04-06T17:18:13.024Z,11.38
2023-04-06T17:20:41.305Z,11.30
2023-04-06T17:23:09.003Z,11.16
2023-04-06T17:25:37.414Z,11.14
2023-04-06T17:28:06.612Z,11.03
2023-04-06T17:30:34.548Z,11.03
2023-04-06T17:33:02.961Z,10.94
2023-04-06T17:35:30.714Z,10.85
2023-04-06T17:37:58.464Z,10.79
2023-04-06T17:40:26.408Z,10.73
2023-04-06T17:42:54.079Z,10.71
2023-04-06T17:45:23.193Z,10.68
2023-04-06T17:47:51.066Z,10.54
2023-04-06T17:50:19.012Z,10.54
2023-04-06T17:52:47.199Z,10.51
2023-04-06T17:55:15.089Z,10.45
2023-04-06T17:57:44.582Z,10.40
2023-04-06T18:00:13.593Z,10.38
2023-04-06T18:02:42.845Z,10.32
2023-04-06T18:05:11.063Z,10.28
2023-04-06T18:07:38.729Z,10.21
2023-04-06T18:10:07.738Z,10.17
2023-04-06T18:12:35.442Z,10.10
2023-04-06T18:15:03.293Z,10.05
2023-04-06T18:17:31.582Z,10.01
2023-04-06T18:20:00.733Z,9.94
2023-04-06T18:22:28.615Z,9.93
2023-04-06T18:24:56.634Z,9.83
2023-04-06T18:27:25.376Z,9.72
2023-04-06T18:29:53.261Z,9.56
2023-04-06T18:32:21.008Z,9.48
2023-04-06T18:34:48.714Z,9.47
2023-04-06T18:37:17.994Z,9.44
2023-04-06T18:39:45.677Z,9.39
2023-04-06T18:42:13.402Z,9.36
2023-04-06T18:44:41.557Z,9.32
2023-04-06T18:47:09.327Z,9.24
2023-04-06T18:49:37.022Z,9.18
2023-04-06T18:52:06.302Z,9.15
2023-04-06T18:54:35.397Z,9.01
2023-04-06T18:57:03.307Z,8.97
2023-04-06T18:59:31.711Z,8.86
2023-04-06T19:01:59.584Z,8.86
2023-04-06T19:04:29.291Z,8.73
2023-04-06T19:06:57.894Z,8.67
2023-04-06T19:09:25.930Z,8.60
2023-04-06T19:11:55.022Z,8.48
2023-04-06T19:14:22.794Z,8.41
2023-04-06T19:16:52.768Z,8.37
2023-04-06T19:19:21.292Z,8.34
2023-04-06T19:21:49.235Z,8.37
2023-04-06T19:24:16.996Z,8.40
2023-04-06T19:26:44.803Z,8.44
2023-04-06T19:29:14.043Z,8.43
2023-04-06T19:31:41.821Z,8.34
2023-04-06T19:34:09.603Z,8.36
2023-04-06T19:36:37.357Z,8.42
2023-04-06T19:39:05.259Z,8.35
2023-04-06T19:41:33.077Z,8.35
2023-04-06T19:44:00.810Z,8.36
2023-04-06T19:46:30.119Z,8.29
2023-04-06T19:48:57.908Z,8.22
2023-04-06T19:51:25.662Z,8.22
2023-04-06T19:55:21.167Z,8.23
2023-04-06T19:57:48.933Z,8.27
2023-04-06T20:00:17.381Z,8.22
2023-04-06T20:02:46.910Z,8.25
2023-04-06T20:05:15.079Z,8.21
2023-04-06T20:07:42.846Z,8.18
2023-04-06T20:10:10.686Z,8.05
2023-04-06T20:12:39.274Z,8.00
2023-04-06T20:15:07.699Z,7.92
2023-04-06T20:17:37.550Z,7.80
2023-04-06T20:20:07.900Z,7.73
2023-04-06T20:22:36.317Z,7.65
2023-04-06T20:25:04.251Z,7.52
2023-04-06T20:27:32.118Z,7.36
2023-04-06T20:29:59.939Z,7.39
2023-04-06T20:32:28.027Z,7.28
2023-04-06T20:34:59.222Z,7.27
2023-04-06T20:37:28.654Z,7.09
2023-04-06T20:39:56.470Z,7.07
2023-04-06T20:42:25.624Z,6.88
2023-04-06T20:44:56.302Z,6.70
2023-04-06T20:47:25.621Z,6.63
2023-04-06T20:49:55.952Z,6.67
2023-04-06T20:52:23.986Z,6.45
2023-04-06T20:54:53.274Z,6.51
2023-04-06T20:57:21.233Z,6.43
2023-04-06T20:59:50.665Z,6.38
2023-04-06T21:02:20.652Z,6.51
2023-04-06T21:04:49.840Z,6.47
2023-04-06T21:07:17.737Z,6.46
2023-04-06T21:09:45.474Z,6.34
2023-04-06T21:12:15.045Z,6.36
2023-04-06T21:14:46.020Z,6.33
2023-04-06T21:17:13.815Z,6.23
2023-04-06T21:19:41.649Z,6.27
2023-04-06T21:22:09.494Z,6.25
2023-04-06T21:24:37.628Z,6.10
2023-04-06T21:27:06.623Z,6.03
2023-04-06T21:29:37.532Z,6.01
2023-04-06T21:32:05.475Z,6.11
2023-04-06T21:34:33.262Z,6.07
2023-04-06T21:37:01.491Z,6.02
2023-04-06T21:39:29.349Z,6.06
2023-04-06T21:41:57.257Z,5.99
2023-04-06T21:44:25.166Z,5.87
2023-04-06T21:46:55.681Z,5.78
2023-04-06T21:49:24.957Z,5.79
2023-04-06T21:51:53.849Z,5.80
2023-04-06T21:54:22.029Z,5.77
2023-04-06T21:56:49.814Z,5.71
2023-04-06T21:59:19.242Z,5.67
2023-04-06T22:01:47.244Z,5.52
2023-04-06T22:04:19.487Z,5.49
2023-04-06T22:06:48.148Z,5.58
2023-04-06T22:09:16.406Z,5.64
2023-04-06T22:11:44.271Z,5.76
2023-04-06T22:14:12.799Z,5.75
2023-04-06T22:16:40.795Z,5.65
2023-04-06T22:19:08.569Z,5.78
2023-04-06T22:21:37.871Z,5.62
2023-04-06T22:24:05.847Z,5.54
2023-04-06T22:26:33.988Z,5.56
2023-04-06T22:29:01.879Z,5.24
2023-04-06T22:31:29.713Z,5.25
2023-04-06T22:33:57.646Z,5.21
2023-04-06T22:36:26.747Z,5.17
2023-04-06T22:38:56.183Z,5.08
2023-04-06T22:41:23.915Z,4.80
2023-04-06T22:43:54.526Z,4.87
2023-04-06T22:46:22.640Z,4.86
2023-04-06T22:48:50.448Z,4.83
2023-04-06T22:51:18.316Z,4.80
2023-04-06T22:53:46.133Z,4.64
2023-04-06T22:56:15.473Z,4.47
2023-04-06T22:58:43.144Z,4.53
2023-04-06T23:01:11.060Z,4.36
2023-04-06T23:03:39.281Z,4.19
2023-04-06T23:06:07.609Z,4.31
2023-04-06T23:08:35.316Z,4.19
2023-04-06T23:11:03.409Z,4.16
2023-04-06T23:13:32.574Z,3.95
2023-04-06T23:16:00.658Z,3.91
2023-04-06T23:18:28.397Z,3.84
2023-04-06T23:20:56.147Z,3.94
2023-04-06T23:23:24.232Z,3.91
2023-04-06T23:25:51.985Z,3.88
2023-04-06T23:28:19.652Z,3.83
2023-04-06T23:30:48.718Z,3.76
2023-04-06T23:33:16.632Z,3.72
2023-04-06T23:35:44.648Z,3.89
2023-04-06T23:38:12.422Z,3.88
2023-04-06T23:40:40.244Z,3.74
2023-04-06T23:43:07.998Z,3.82
2023-04-06T23:45:35.966Z,3.79
2023-04-06T23:48:05.584Z,3.82
2023-04-06T23:50:33.416Z,3.68
2023-04-06T23:53:01.264Z,3.75
2023-04-06T23:55:29.007Z,3.75
2023-04-06T23:57:56.833Z,3.53
